createdAt,value
2023-03-24T00:01:13.930Z,68.39
2023-03-24T00:03:48.821Z,68.54
2023-03-24T00:06:22.837Z,68.53
2023-03-24T00:08:55.726Z,68.56
2023-03-24T00:11:28.551Z,68.30
2023-03-24T00:14:01.096Z,68.27
2023-03-24T00:16:35.021Z,68.37
2023-03-24T00:19:07.794Z,67.94
2023-03-24T00:21:42.156Z,68.06
2023-03-24T00:24:16.682Z,68.38
2023-03-24T00:26:52.055Z,68.67
2023-03-24T00:29:24.919Z,68.86
2023-03-24T00:31:57.572Z,68.81
2023-03-24T00:34:32.273Z,69.10
2023-03-24T00:37:05.127Z,69.25
2023-03-24T00:39:38.040Z,69.31
2023-03-24T00:42:10.573Z,69.28
2023-03-24T00:44:44.956Z,69.29
2023-03-24T00:47:25.966Z,69.65
2023-03-24T00:50:02.063Z,69.83
2023-03-24T00:52:35.251Z,69.77
2023-03-24T00:55:09.893Z,70.06
2023-03-24T00:57:49.853Z,69.99
2023-03-24T01:00:25.005Z,70.16
2023-03-24T01:03:03.557Z,70.23
2023-03-24T01:05:37.507Z,70.24
2023-03-24T01:08:10.811Z,70.34
2023-03-24T01:10:50.561Z,70.33
2023-03-24T01:13:25.882Z,70.70
2023-03-24T01:15:59.423Z,70.93
2023-03-24T01:18:32.094Z,70.97
2023-03-24T01:21:04.728Z,71.40
2023-03-24T01:23:38.600Z,71.26
2023-03-24T01:26:12.847Z,71.39
2023-03-24T01:28:45.968Z,71.38
2023-03-24T01:31:18.527Z,71.64
2023-03-24T01:33:51.727Z,71.78
2023-03-24T01:36:25.279Z,71.79
2023-03-24T01:39:01.239Z,71.75
2023-03-24T01:41:37.327Z,71.95
2023-03-24T01:44:27.701Z,71.91
2023-03-24T01:47:01.469Z,71.71
2023-03-24T01:49:37.941Z,71.72
2023-03-24T01:52:13.552Z,71.85
2023-03-24T01:54:50.894Z,71.90
2023-03-24T01:57:29.038Z,71.56
2023-03-24T02:00:05.227Z,71.53
2023-03-24T02:02:54.850Z,71.22
2023-03-24T02:05:30.473Z,71.05
2023-03-24T02:08:10.129Z,71.15
2023-03-24T02:10:44.345Z,71.14
2023-03-24T02:13:17.352Z,70.82
2023-03-24T02:16:01.112Z,70.59
2023-03-24T02:18:44.978Z,70.54
2023-03-24T02:21:47.518Z,70.89
2023-03-24T02:24:51.517Z,70.72
2023-03-24T02:27:44.197Z,70.74
2023-03-24T02:30:55.925Z,70.91
2023-03-24T02:34:04.722Z,70.76
2023-03-24T02:37:03.272Z,70.95
2023-03-24T02:39:53.137Z,71.24
2023-03-24T02:42:36.073Z,71.58
2023-03-24T02:45:21.408Z,71.71
2023-03-24T02:48:09.300Z,71.79
2023-03-24T02:50:51.232Z,71.78
2023-03-24T02:53:32.312Z,72.04
2023-03-24T02:56:33.543Z,71.83
2023-03-24T02:59:20.591Z,71.67
2023-03-24T03:02:00.145Z,72.10
2023-03-24T03:05:01.091Z,72.36
2023-03-24T03:07:37.816Z,72.99
2023-03-24T03:10:16.656Z,72.51
2023-03-24T03:12:52.377Z,72.63
2023-03-24T03:15:29.442Z,72.72
2023-03-24T03:18:08.747Z,72.90
2023-03-24T03:20:50.755Z,72.84
2023-03-24T03:23:31.423Z,72.58
2023-03-24T03:26:09.952Z,72.69
2023-03-24T03:28:50.236Z,72.96
2023-03-24T03:31:30.318Z,73.12
2023-03-24T03:34:11.037Z,72.90
2023-03-24T03:36:51.865Z,72.75
2023-03-24T03:39:29.814Z,72.75
2023-03-24T03:42:03.504Z,72.84
2023-03-24T03:44:36.928Z,72.90
2023-03-24T03:47:09.659Z,72.75
2023-03-24T03:49:48.243Z,72.65
2023-03-24T03:52:22.177Z,72.49
2023-03-24T03:54:57.494Z,72.58
2023-03-24T03:57:30.946Z,72.57
2023-03-24T04:00:27.001Z,72.48
2023-03-24T04:03:50.737Z,72.56
2023-03-24T04:06:36.129Z,72.77
2023-03-24T04:09:19.224Z,72.54
2023-03-24T04:12:10.554Z,72.74
2023-03-24T04:15:35.702Z,72.56
2023-03-24T04:18:48.291Z,72.59
2023-03-24T04:21:38.577Z,72.53
2023-03-24T04:24:26.907Z,72.64
2023-03-24T04:27:09.557Z,72.51
2023-03-24T04:29:53.165Z,72.48
2023-03-24T04:32:33.453Z,72.53
2023-03-24T04:35:13.096Z,72.45
2023-03-24T04:38:17.364Z,72.79
2023-03-24T04:40:55.732Z,72.81
2023-03-24T04:43:36.827Z,72.89
2023-03-24T04:46:11.512Z,73.24
2023-03-24T04:49:08.032Z,73.16
2023-03-24T04:51:44.203Z,73.14
2023-03-24T04:54:37.359Z,72.90
2023-03-24T04:57:13.102Z,72.94
2023-03-24T04:59:49.102Z,72.76
2023-03-24T05:02:22.022Z,72.97
2023-03-24T05:04:54.684Z,73.21
2023-03-24T05:07:31.860Z,73.93
2023-03-24T05:10:06.626Z,74.41
2023-03-24T05:12:44.224Z,74.15
2023-03-24T05:15:25.570Z,73.72
2023-03-24T05:18:02.755Z,74.01
2023-03-24T05:20:37.001Z,74.22
2023-03-24T05:23:17.185Z,74.07
2023-03-24T05:25:50.318Z,74.11
2023-03-24T05:28:24.111Z,74.22
2023-03-24T05:30:57.964Z,73.96
2023-03-24T05:33:52.906Z,73.90
2023-03-24T05:36:26.165Z,73.96
2023-03-24T05:39:04.066Z,73.94
2023-03-24T05:41:44.665Z,74.34
2023-03-24T05:44:17.219Z,74.38
2023-03-24T05:46:57.413Z,74.33
2023-03-24T05:49:30.410Z,74.20
2023-03-24T05:52:03.134Z,74.32
2023-03-24T05:54:36.468Z,74.19
2023-03-24T05:57:19.680Z,74.78
2023-03-24T06:00:17.061Z,75.17
2023-03-24T06:03:14.450Z,74.77
2023-03-24T06:05:50.977Z,75.10
2023-03-24T06:08:24.703Z,75.51
2023-03-24T06:11:02.567Z,75.71
2023-03-24T06:13:35.159Z,76.15
2023-03-24T06:16:09.913Z,76.10
2023-03-24T06:18:55.195Z,76.09
2023-03-24T06:21:50.727Z,75.76
2023-03-24T06:24:25.290Z,76.67
2023-03-24T06:26:59.436Z,77.16
2023-03-24T06:29:32.543Z,77.41
2023-03-24T06:32:05.720Z,77.53
2023-03-24T06:34:42.982Z,78.90
2023-03-24T06:37:24.490Z,78.92
2023-03-24T06:39:55.629Z,79.25
2023-03-24T06:42:30.989Z,79.80
2023-03-24T06:45:04.368Z,80.51
2023-03-24T06:47:37.252Z,80.93
2023-03-24T06:50:11.261Z,82.10
2023-03-24T06:52:44.517Z,82.26
2023-03-24T06:55:18.936Z,81.91
2023-03-24T06:57:51.651Z,82.20
2023-03-24T07:00:48.294Z,82.60
2023-03-24T07:03:42.064Z,82.72
2023-03-24T07:06:40.217Z,82.87
2023-03-24T07:09:18.977Z,82.44
2023-03-24T07:11:51.620Z,82.17
2023-03-24T07:14:26.705Z,82.42
2023-03-24T07:17:00.397Z,83.01
2023-03-24T07:19:33.693Z,82.88
2023-03-24T07:22:24.752Z,82.96
2023-03-24T07:25:20.204Z,83.28
2023-03-24T07:28:12.032Z,82.63
2023-03-24T07:30:44.952Z,82.43
2023-03-24T07:33:17.760Z,82.46
2023-03-24T07:35:50.445Z,82.16
2023-03-24T07:38:23.038Z,82.56
2023-03-24T07:40:58.975Z,82.62
2023-03-24T07:43:31.713Z,82.49
2023-03-24T07:46:23.807Z,82.95
2023-03-24T07:49:01.173Z,83.40
2023-03-24T07:51:40.656Z,84.32
2023-03-24T07:54:27.476Z,83.97
2023-03-24T07:57:00.206Z,83.12
2023-03-24T07:59:34.271Z,83.15
2023-03-24T08:02:17.799Z,82.73
2023-03-24T08:05:25.060Z,81.95
2023-03-24T08:08:06.778Z,81.46
2023-03-24T08:10:39.308Z,81.99
2023-03-24T08:13:11.892Z,82.08
2023-03-24T08:15:44.494Z,81.50
2023-03-24T08:18:17.385Z,82.24
2023-03-24T08:20:50.593Z,81.38
2023-03-24T08:23:23.071Z,80.99
2023-03-24T08:25:55.852Z,81.17
2023-03-24T08:28:28.412Z,80.92
2023-03-24T08:31:01.064Z,80.56
2023-03-24T08:33:33.526Z,80.78
2023-03-24T08:36:07.089Z,80.96
2023-03-24T08:38:39.965Z,80.53
2023-03-24T08:41:12.416Z,79.81
2023-03-24T08:43:45.264Z,80.66
2023-03-24T08:46:17.778Z,80.67
2023-03-24T08:48:51.569Z,80.15
2023-03-24T08:51:23.982Z,79.41
2023-03-24T08:53:56.476Z,78.84
2023-03-24T08:56:29.257Z,78.79
2023-03-24T08:59:01.703Z,78.06
2023-03-24T09:01:35.535Z,77.60
2023-03-24T09:04:08.318Z,77.49
2023-03-24T09:06:40.935Z,76.97
2023-03-24T09:09:13.416Z,76.53
2023-03-24T09:11:45.929Z,76.00
2023-03-24T09:14:18.676Z,76.00
2023-03-24T09:16:51.597Z,75.65
2023-03-24T09:19:24.500Z,75.06
2023-03-24T09:21:56.970Z,74.78
2023-03-24T09:24:29.426Z,74.75
2023-03-24T09:27:02.157Z,74.77
2023-03-24T09:29:34.893Z,74.74
2023-03-24T09:32:07.624Z,74.61
2023-03-24T09:34:40.260Z,73.84
2023-03-24T09:37:12.717Z,73.38
2023-03-24T09:39:45.138Z,72.50
2023-03-24T09:42:23.224Z,73.07
2023-03-24T09:44:58.476Z,73.03
2023-03-24T09:47:34.921Z,72.80
2023-03-24T09:50:17.581Z,72.79
2023-03-24T09:52:53.133Z,71.92
2023-03-24T09:55:28.387Z,72.24
2023-03-24T09:58:04.570Z,72.68
2023-03-24T10:00:37.659Z,72.03
2023-03-24T10:03:21.502Z,71.87
2023-03-24T10:05:59.774Z,72.00
2023-03-24T10:08:37.266Z,71.66
2023-03-24T10:11:16.585Z,71.62
2023-03-24T10:14:03.826Z,71.68
2023-03-24T10:16:44.409Z,72.14
2023-03-24T10:19:30.480Z,73.47
2023-03-24T10:22:12.358Z,74.62
2023-03-24T10:24:52.932Z,74.62
2023-03-24T10:27:31.998Z,74.48
2023-03-24T10:30:14.810Z,74.55
2023-03-24T10:32:47.509Z,74.31
2023-03-24T10:35:24.385Z,74.60
2023-03-24T10:38:00.477Z,74.38
2023-03-24T10:40:34.734Z,73.96
2023-03-24T10:43:09.637Z,73.75
2023-03-24T10:45:45.563Z,73.72
2023-03-24T10:48:37.408Z,73.43
2023-03-24T10:51:15.581Z,73.74
2023-03-24T10:53:49.985Z,73.76
2023-03-24T10:56:41.409Z,72.93
2023-03-24T10:59:27.565Z,72.08
2023-03-24T11:02:04.148Z,72.11
2023-03-24T11:04:38.773Z,71.86
2023-03-24T11:07:21.205Z,72.11
2023-03-24T11:10:03.219Z,71.52
2023-03-24T11:12:38.279Z,71.79
2023-03-24T11:15:22.142Z,71.75
2023-03-24T11:18:01.733Z,71.48
2023-03-24T11:20:37.379Z,71.77
2023-03-24T11:23:18.221Z,71.48
2023-03-24T11:26:03.676Z,71.87
2023-03-24T11:28:41.290Z,71.62
2023-03-24T11:31:24.607Z,71.84
2023-03-24T11:34:01.591Z,72.30
2023-03-24T11:36:50.239Z,72.46
2023-03-24T11:39:25.831Z,72.42
2023-03-24T11:42:17.002Z,72.94
2023-03-24T11:44:53.064Z,73.18
2023-03-24T11:47:30.273Z,72.89
2023-03-24T11:50:19.114Z,72.16
2023-03-24T11:52:55.578Z,72.12
2023-03-24T11:55:35.864Z,71.65
2023-03-24T11:58:18.792Z,71.37
2023-03-24T12:00:58.168Z,71.50
2023-03-24T12:03:56.645Z,70.67
2023-03-24T12:06:42.200Z,70.42
2023-03-24T12:09:24.609Z,70.98
2023-03-24T12:12:17.509Z,70.73
2023-03-24T12:15:17.267Z,70.67
2023-03-24T12:18:10.548Z,70.83
2023-03-24T12:20:51.961Z,70.27
2023-03-24T12:23:35.593Z,69.50
2023-03-24T12:26:17.855Z,67.94
2023-03-24T12:29:05.993Z,67.27
2023-03-24T12:32:06.204Z,66.25
2023-03-24T12:34:54.720Z,65.84
2023-03-24T12:37:34.634Z,65.85
2023-03-24T12:40:40.132Z,65.51
2023-03-24T12:43:24.306Z,64.29
2023-03-24T12:45:59.828Z,64.21
2023-03-24T12:48:46.288Z,63.21
2023-03-24T12:51:29.270Z,62.92
2023-03-24T12:54:13.540Z,62.69
2023-03-24T12:56:49.909Z,62.02
2023-03-24T12:59:28.520Z,60.71
2023-03-24T13:02:13.587Z,59.51
2023-03-24T13:04:50.935Z,58.78
2023-03-24T13:07:28.654Z,58.91
2023-03-24T13:10:07.814Z,58.86
2023-03-24T13:12:45.587Z,58.83
2023-03-24T13:15:22.049Z,58.78
2023-03-24T13:18:01.538Z,58.55
2023-03-24T13:20:41.496Z,58.45
2023-03-24T13:23:29.670Z,58.36
2023-03-24T13:26:12.144Z,58.07
2023-03-24T13:28:53.144Z,58.84
2023-03-24T13:31:29.626Z,59.05
2023-03-24T13:34:03.860Z,59.18
2023-03-24T13:36:48.174Z,59.27
2023-03-24T13:39:23.873Z,59.26
2023-03-24T13:41:58.972Z,59.20
2023-03-24T13:44:39.535Z,59.13
2023-03-24T13:47:17.010Z,59.34
2023-03-24T13:49:58.737Z,59.52
2023-03-24T13:52:36.319Z,59.71
2023-03-24T13:55:16.247Z,59.98
2023-03-24T13:57:59.220Z,60.31
2023-03-24T14:00:31.773Z,60.61
2023-03-24T14:03:32.390Z,59.75
2023-03-24T14:06:09.170Z,59.41
2023-03-24T14:08:55.831Z,58.77
2023-03-24T14:11:51.150Z,58.85
2023-03-24T14:14:29.387Z,58.37
2023-03-24T14:17:16.710Z,58.44
2023-03-24T14:20:25.756Z,57.80
2023-03-24T14:22:58.515Z,57.44
2023-03-24T14:25:33.199Z,58.89
2023-03-24T14:28:26.474Z,59.34
2023-03-24T14:31:05.008Z,58.61
2023-03-24T14:33:38.921Z,58.58
2023-03-24T14:36:14.801Z,58.70
2023-03-24T14:38:47.708Z,59.23
2023-03-24T14:41:34.389Z,59.31
2023-03-24T14:44:07.763Z,59.54
2023-03-24T14:46:43.409Z,59.71
2023-03-24T14:49:30.362Z,60.01
2023-03-24T14:52:12.087Z,59.47
2023-03-24T14:54:49.684Z,59.66
2023-03-24T14:57:26.089Z,59.81
2023-03-24T15:00:08.998Z,60.17
2023-03-24T15:02:44.789Z,60.58
2023-03-24T15:05:31.665Z,60.23
2023-03-24T15:08:12.089Z,60.52
2023-03-24T15:10:49.531Z,61.04
2023-03-24T15:13:41.193Z,60.96
2023-03-24T15:16:24.089Z,62.04
2023-03-24T15:19:01.783Z,66.26
2023-03-24T15:21:38.406Z,71.27
2023-03-24T15:24:29.402Z,72.99
2023-03-24T15:27:21.378Z,74.35
2023-03-24T15:29:59.339Z,74.52
2023-03-24T15:32:33.043Z,73.99
2023-03-24T15:35:08.880Z,74.79
2023-03-24T15:37:48.318Z,74.67
2023-03-24T15:40:41.763Z,73.15
2023-03-24T15:43:22.719Z,73.20
2023-03-24T15:46:08.864Z,73.41
2023-03-24T15:48:49.009Z,73.08
2023-03-24T15:51:21.669Z,73.27
2023-03-24T15:54:00.261Z,72.75
2023-03-24T15:56:34.346Z,74.17
2023-03-24T15:59:17.546Z,74.14
2023-03-24T16:01:50.569Z,75.07
2023-03-24T16:04:23.689Z,73.12
2023-03-24T16:06:57.790Z,70.37
2023-03-24T16:09:41.001Z,66.81
2023-03-24T16:12:14.359Z,63.65
2023-03-24T16:14:46.921Z,62.93
2023-03-24T16:17:19.339Z,63.50
2023-03-24T16:19:52.205Z,63.09
2023-03-24T16:22:24.904Z,62.27
2023-03-24T16:24:57.300Z,60.39
2023-03-24T16:27:30.017Z,58.96
2023-03-24T16:30:03.078Z,58.28
2023-03-24T16:32:35.629Z,58.98
2023-03-24T16:35:10.015Z,60.20
2023-03-24T16:37:43.283Z,60.96
2023-03-24T16:40:26.821Z,61.52
2023-03-24T16:43:02.230Z,62.21
2023-03-24T16:45:35.734Z,61.84
2023-03-24T16:48:08.677Z,62.76
2023-03-24T16:50:42.580Z,63.62
2023-03-24T16:53:15.045Z,63.51
2023-03-24T16:55:47.711Z,63.80
2023-03-24T16:58:20.320Z,65.10
2023-03-24T17:00:53.636Z,67.21
2023-03-24T17:03:29.882Z,67.78
2023-03-24T17:06:03.673Z,67.96
2023-03-24T17:08:36.250Z,68.24
2023-03-24T17:11:11.156Z,68.36
2023-03-24T17:13:44.284Z,69.28
2023-03-24T17:16:18.527Z,69.67
2023-03-24T17:18:50.945Z,69.92
2023-03-24T17:21:24.118Z,70.95
2023-03-24T17:23:56.713Z,71.72
2023-03-24T17:26:30.837Z,72.77
2023-03-24T17:29:04.706Z,73.71
2023-03-24T17:31:37.385Z,74.30
2023-03-24T17:34:21.697Z,74.57
2023-03-24T17:36:55.625Z,74.50
2023-03-24T17:39:27.995Z,74.75
2023-03-24T17:42:01.622Z,74.38
2023-03-24T17:44:35.328Z,74.05
2023-03-24T17:47:08.756Z,73.35
2023-03-24T17:49:41.557Z,73.50
2023-03-24T17:52:14.163Z,72.71
2023-03-24T17:54:46.869Z,72.63
2023-03-24T17:57:19.690Z,72.74
2023-03-24T17:59:53.090Z,73.12
2023-03-24T18:02:26.198Z,72.97
2023-03-24T18:04:58.805Z,72.93
2023-03-24T18:07:31.401Z,72.75
2023-03-24T18:10:03.962Z,72.94
2023-03-24T18:12:37.393Z,72.58
2023-03-24T18:15:11.742Z,72.32
2023-03-24T18:17:44.783Z,72.42
2023-03-24T18:20:17.770Z,72.86
2023-03-24T18:22:50.970Z,74.20
2023-03-24T18:25:23.512Z,73.57
2023-03-24T18:27:57.163Z,74.37
2023-03-24T18:30:30.874Z,74.53
2023-03-24T18:33:03.513Z,74.30
2023-03-24T18:35:36.791Z,74.24
2023-03-24T18:38:09.329Z,74.34
2023-03-24T18:40:41.774Z,73.82
2023-03-24T18:43:15.025Z,73.86
2023-03-24T18:45:47.534Z,73.71
2023-03-24T18:48:20.750Z,72.91
2023-03-24T18:50:53.754Z,73.31
2023-03-24T18:53:26.229Z,72.73
2023-03-24T18:55:59.555Z,72.52
2023-03-24T18:58:32.542Z,72.89
2023-03-24T19:01:09.095Z,72.88
2023-03-24T19:03:44.162Z,72.81
2023-03-24T19:06:17.598Z,72.50
2023-03-24T19:08:53.881Z,72.21
2023-03-24T19:11:27.399Z,71.99
2023-03-24T19:14:00.702Z,71.85
2023-03-24T19:16:33.703Z,71.74
2023-03-24T19:19:06.933Z,71.75
2023-03-24T19:21:40.460Z,72.49
2023-03-24T19:24:14.035Z,72.87
2023-03-24T19:26:47.100Z,73.15
2023-03-24T19:29:19.940Z,72.41
2023-03-24T19:31:52.651Z,72.06
2023-03-24T19:34:25.802Z,72.02
2023-03-24T19:36:58.366Z,72.08
2023-03-24T19:39:31.118Z,72.21
2023-03-24T19:42:07.768Z,72.27
2023-03-24T19:44:41.212Z,72.51
2023-03-24T19:47:13.624Z,72.98
2023-03-24T19:49:46.291Z,73.57
2023-03-24T19:52:18.867Z,73.80
2023-03-24T19:54:52.587Z,73.47
2023-03-24T19:57:25.312Z,74.00
2023-03-24T19:59:57.884Z,74.82
2023-03-24T20:02:30.614Z,74.44
2023-03-24T20:05:03.858Z,74.47
2023-03-24T20:07:37.744Z,74.68
2023-03-24T20:10:12.017Z,75.20
2023-03-24T20:12:44.863Z,75.17
2023-03-24T20:15:17.817Z,75.50
2023-03-24T20:17:50.775Z,76.04
2023-03-24T20:20:23.996Z,76.75
2023-03-24T20:22:56.476Z,77.11
2023-03-24T20:25:29.436Z,77.38
2023-03-24T20:28:02.234Z,77.20
2023-03-24T20:30:34.672Z,77.50
2023-03-24T20:33:07.271Z,77.71
2023-03-24T20:35:40.907Z,78.14
2023-03-24T20:38:13.478Z,78.15
2023-03-24T20:40:47.131Z,77.76
2023-03-24T20:43:21.341Z,77.70
2023-03-24T20:45:57.541Z,78.63
2023-03-24T20:48:30.683Z,78.81
2023-03-24T20:51:04.270Z,78.57
2023-03-24T20:53:36.892Z,79.43
2023-03-24T20:56:13.454Z,79.07
2023-03-24T20:58:47.310Z,79.82
2023-03-24T21:01:22.401Z,79.76
2023-03-24T21:04:00.123Z,79.51
2023-03-24T21:06:40.869Z,78.78
2023-03-24T21:09:13.766Z,78.24
2023-03-24T21:11:46.625Z,77.51
2023-03-24T21:14:19.085Z,77.31
2023-03-24T21:16:52.543Z,77.95
2023-03-24T21:19:25.275Z,77.92
2023-03-24T21:21:57.727Z,77.38
2023-03-24T21:24:30.179Z,77.26
2023-03-24T21:27:02.957Z,77.67
2023-03-24T21:29:35.533Z,78.27
2023-03-24T21:32:08.194Z,77.92
2023-03-24T21:34:41.025Z,77.79
2023-03-24T21:37:17.630Z,77.47
2023-03-24T21:39:50.044Z,78.02
2023-03-24T21:42:22.818Z,77.52
2023-03-24T21:44:55.363Z,76.93
2023-03-24T21:47:28.277Z,76.98
2023-03-24T21:50:03.134Z,77.57
2023-03-24T21:52:38.999Z,76.96
2023-03-24T21:55:14.689Z,76.37
2023-03-24T21:57:48.797Z,76.67
2023-03-24T22:00:24.620Z,76.61
2023-03-24T22:02:58.349Z,77.61
2023-03-24T22:05:32.865Z,76.70
2023-03-24T22:08:06.639Z,75.98
2023-03-24T22:10:42.578Z,76.50
2023-03-24T22:13:15.155Z,76.13
2023-03-24T22:15:47.568Z,76.93
2023-03-24T22:18:20.484Z,77.50
2023-03-24T22:21:01.181Z,78.36
2023-03-24T22:23:36.691Z,78.53
2023-03-24T22:26:11.083Z,77.89
2023-03-24T22:28:44.179Z,77.39
2023-03-24T22:31:18.076Z,77.38
2023-03-24T22:33:50.793Z,77.36
2023-03-24T22:36:23.190Z,77.73
2023-03-24T22:38:55.867Z,77.96
2023-03-24T22:41:28.294Z,77.73
2023-03-24T22:44:00.779Z,77.42
2023-03-24T22:46:33.301Z,78.31
2023-03-24T22:49:06.512Z,78.56
2023-03-24T22:51:38.921Z,78.68
2023-03-24T22:54:11.448Z,78.96
2023-03-24T22:56:43.857Z,79.22
2023-03-24T22:59:16.597Z,79.83
2023-03-24T23:01:56.135Z,79.41
2023-03-24T23:04:39.848Z,79.85
2023-03-24T23:07:12.319Z,79.03
2023-03-24T23:09:44.944Z,78.93
2023-03-24T23:12:17.565Z,79.37
2023-03-24T23:14:50.436Z,78.84
2023-03-24T23:17:24.398Z,78.71
2023-03-24T23:19:58.177Z,78.43
2023-03-24T23:22:31.726Z,79.50
2023-03-24T23:25:05.842Z,79.20
2023-03-24T23:27:39.736Z,79.14
2023-03-24T23:30:15.742Z,78.54
2023-03-24T23:32:48.724Z,77.66
2023-03-24T23:35:21.763Z,77.51
2023-03-24T23:37:54.253Z,77.12
2023-03-24T23:40:26.790Z,77.21
2023-03-24T23:42:59.899Z,78.13
2023-03-24T23:45:32.495Z,77.42
2023-03-24T23:48:05.425Z,77.01
2023-03-24T23:50:38.320Z,77.06
2023-03-24T23:53:10.939Z,77.11
2023-03-24T23:55:43.395Z,78.17
2023-03-24T23:58:18.421Z,78.60
